createdAt,value
2022-11-01T00:02:00.107Z,86.74
2022-11-01T00:04:26.866Z,87.12
2022-11-01T00:06:53.674Z,86.91
2022-11-01T00:09:20.433Z,88.38
2022-11-01T00:11:47.260Z,90.31
2022-11-01T00:14:15.697Z,89.42
2022-11-01T00:16:42.858Z,91.35
2022-11-01T00:19:10.256Z,92.18
2022-11-01T00:21:36.921Z,93.23
2022-11-01T00:24:03.996Z,93.78
2022-11-01T00:26:30.658Z,93.55
2022-11-01T00:28:57.223Z,92.36
2022-11-01T00:31:24.310Z,92.97
2022-11-01T00:33:51.145Z,94.30
2022-11-01T00:36:18.025Z,92.80
2022-11-01T00:38:44.572Z,92.90
2022-11-01T00:41:11.219Z,91.83
2022-11-01T00:43:37.954Z,93.10
2022-11-01T00:46:05.198Z,93.64
2022-11-01T00:48:32.160Z,94.00
2022-11-01T00:50:58.831Z,93.57
2022-11-01T00:53:25.495Z,94.43
2022-11-01T00:55:52.181Z,94.36
2022-11-01T00:58:18.793Z,94.04
2022-11-01T01:00:47.298Z,93.84
2022-11-01T01:03:13.879Z,94.17
2022-11-01T01:05:40.479Z,95.79
2022-11-01T01:08:07.043Z,93.20
2022-11-01T01:10:33.531Z,94.22
2022-11-01T01:13:00.454Z,93.61
2022-11-01T01:15:27.581Z,94.42
2022-11-01T01:17:54.385Z,95.21
2022-11-01T01:20:21.920Z,94.19
2022-11-01T01:22:48.517Z,95.46
2022-11-01T01:25:15.769Z,95.49
2022-11-01T01:27:42.368Z,95.04
2022-11-01T01:30:09.579Z,95.71
2022-11-01T01:32:36.434Z,96.53
2022-11-01T01:35:03.124Z,94.28
2022-11-01T01:37:29.723Z,93.45
2022-11-01T01:39:56.356Z,96.12
2022-11-01T01:42:35.061Z,93.98
2022-11-01T01:45:04.682Z,95.36
2022-11-01T01:47:36.641Z,94.50
2022-11-01T01:50:09.191Z,94.79
2022-11-01T01:52:42.805Z,93.92
2022-11-01T01:55:11.372Z,93.13
2022-11-01T01:57:40.113Z,93.52
2022-11-01T02:00:07.919Z,93.57
2022-11-01T02:02:34.522Z,92.84
2022-11-01T02:05:06.486Z,93.23
2022-11-01T02:07:33.194Z,94.85
2022-11-01T02:10:00.075Z,93.32
2022-11-01T02:12:34.114Z,93.71
2022-11-01T02:15:01.502Z,93.86
2022-11-01T02:17:41.916Z,94.07
2022-11-01T02:20:17.335Z,94.33
2022-11-01T02:22:53.130Z,93.72
2022-11-01T02:25:38.307Z,94.40
2022-11-01T02:28:22.156Z,95.79
2022-11-01T02:31:13.315Z,95.64
2022-11-01T02:33:45.262Z,96.18
2022-11-01T02:36:17.489Z,96.44
2022-11-01T02:38:51.238Z,96.66
2022-11-01T02:41:23.705Z,96.27
2022-11-01T02:44:03.003Z,96.13
2022-11-01T02:46:55.009Z,95.06
2022-11-01T02:49:23.700Z,94.04
2022-11-01T02:51:51.308Z,93.38
2022-11-01T02:54:22.106Z,92.67
2022-11-01T02:56:50.754Z,91.67
2022-11-01T02:59:24.441Z,91.55
2022-11-01T03:01:59.599Z,90.94
2022-11-01T03:04:26.461Z,90.52
2022-11-01T03:06:59.273Z,90.19
2022-11-01T03:09:27.368Z,90.61
2022-11-01T03:12:08.195Z,90.29
2022-11-01T03:14:37.504Z,90.72
2022-11-01T03:17:23.146Z,90.42
2022-11-01T03:19:52.127Z,91.29
2022-11-01T03:22:19.022Z,91.17
2022-11-01T03:24:50.657Z,91.97
2022-11-01T03:27:35.418Z,91.79
2022-11-01T03:30:09.916Z,92.30
2022-11-01T03:32:41.463Z,92.96
2022-11-01T03:35:13.975Z,92.59
2022-11-01T03:37:44.471Z,91.96
2022-11-01T03:40:14.381Z,93.23
2022-11-01T03:42:45.401Z,94.47
2022-11-01T03:45:14.708Z,95.44
2022-11-01T03:47:41.820Z,95.43
2022-11-01T03:50:17.190Z,98.72
2022-11-01T03:52:43.893Z,100.00
2022-11-01T03:55:20.459Z,100.00
2022-11-01T03:57:48.215Z,100.00
2022-11-01T04:00:21.556Z,100.00
2022-11-01T04:02:52.941Z,100.00
2022-11-01T04:05:20.768Z,100.00
2022-11-01T04:07:47.987Z,100.00
2022-11-01T04:10:15.161Z,100.00
2022-11-01T04:12:45.363Z,100.00
2022-11-01T04:15:30.952Z,100.00
2022-11-01T04:18:42.691Z,100.00
2022-11-01T04:21:21.556Z,100.00
2022-11-01T04:23:48.858Z,100.00
2022-11-01T04:26:18.094Z,100.00
2022-11-01T04:28:56.818Z,100.00
2022-11-01T04:31:33.069Z,100.00
2022-11-01T04:34:00.766Z,100.00
2022-11-01T04:36:28.005Z,100.00
2022-11-01T04:38:56.317Z,100.00
2022-11-01T04:41:24.722Z,100.00
2022-11-01T04:43:54.184Z,100.00
2022-11-01T04:46:21.088Z,100.00
2022-11-01T04:48:47.685Z,100.00
2022-11-01T04:51:14.341Z,100.00
2022-11-01T04:53:41.093Z,100.00
2022-11-01T04:56:11.168Z,100.00
2022-11-01T04:58:42.996Z,100.00
2022-11-01T05:01:14.455Z,100.00
2022-11-01T05:03:41.422Z,100.00
2022-11-01T05:06:08.118Z,100.00
2022-11-01T05:08:35.316Z,100.00
2022-11-01T05:11:02.029Z,100.00
2022-11-01T05:13:29.203Z,100.00
2022-11-01T05:16:20.025Z,100.00
2022-11-01T05:18:42.973Z,100.00
2022-11-01T05:21:09.581Z,100.00
2022-11-01T05:23:36.102Z,100.00
2022-11-01T05:26:02.750Z,100.00
2022-11-01T05:28:29.313Z,100.00
2022-11-01T05:30:57.964Z,100.00
2022-11-01T05:33:24.616Z,99.81
2022-11-01T05:35:51.259Z,99.77
2022-11-01T05:38:17.990Z,100.00
2022-11-01T05:40:44.782Z,100.00
2022-11-01T05:43:11.290Z,100.00
2022-11-01T05:45:37.945Z,100.00
2022-11-01T05:48:05.081Z,100.00
2022-11-01T05:50:33.955Z,100.00
2022-11-01T05:53:10.320Z,99.56
2022-11-01T05:55:37.642Z,99.84
2022-11-01T05:58:04.597Z,99.65
2022-11-01T06:00:32.299Z,98.66
2022-11-01T06:03:00.777Z,98.82
2022-11-01T06:05:27.981Z,98.84
2022-11-01T06:07:54.746Z,99.54
2022-11-01T06:10:21.519Z,99.22
2022-11-01T06:12:48.100Z,99.36
2022-11-01T06:15:15.026Z,99.37
2022-11-01T06:17:41.595Z,99.09
2022-11-01T06:20:08.636Z,98.62
2022-11-01T06:22:36.588Z,98.10
2022-11-01T06:25:04.315Z,96.35
2022-11-01T06:27:31.248Z,95.69
2022-11-01T06:29:57.860Z,95.57
2022-11-01T06:32:24.389Z,94.04
2022-11-01T06:34:50.922Z,94.20
2022-11-01T06:37:17.609Z,92.64
2022-11-01T06:39:44.320Z,92.44
2022-11-01T06:42:10.939Z,90.50
2022-11-01T06:44:37.487Z,88.32
2022-11-01T06:47:04.294Z,86.29
2022-11-01T06:49:31.729Z,84.83
2022-11-01T06:51:58.318Z,82.40
2022-11-01T06:54:25.665Z,81.78
2022-11-01T06:56:52.228Z,81.28
2022-11-01T06:59:19.765Z,80.32
2022-11-01T07:01:46.408Z,79.80
2022-11-01T07:04:13.191Z,78.99
2022-11-01T07:06:40.175Z,77.57
2022-11-01T07:09:06.915Z,77.20
2022-11-01T07:11:33.922Z,76.42
2022-11-01T07:14:00.762Z,76.78
2022-11-01T07:16:27.682Z,76.10
2022-11-01T07:18:54.609Z,74.45
2022-11-01T07:21:21.504Z,75.85
2022-11-01T07:23:48.104Z,76.07
2022-11-01T07:26:14.995Z,75.01
2022-11-01T07:28:41.555Z,74.80
2022-11-01T07:31:08.443Z,75.05
2022-11-01T07:33:35.062Z,71.34
2022-11-01T07:36:03.963Z,73.63
2022-11-01T07:38:30.621Z,70.86
2022-11-01T07:40:57.176Z,73.88
2022-11-01T07:43:23.970Z,72.33
2022-11-01T07:45:50.690Z,72.86
2022-11-01T07:48:18.781Z,74.53
2022-11-01T07:50:45.831Z,74.55
2022-11-01T07:53:19.238Z,75.66
2022-11-01T07:55:46.430Z,76.33
2022-11-01T07:58:14.573Z,76.40
2022-11-01T08:00:43.881Z,76.98
2022-11-01T08:03:16.261Z,76.94
2022-11-01T08:05:44.232Z,76.81
2022-11-01T08:08:11.158Z,76.75
2022-11-01T08:10:38.555Z,76.51
2022-11-01T08:13:08.070Z,75.21
2022-11-01T08:15:34.814Z,75.16
2022-11-01T08:18:02.113Z,75.67
2022-11-01T08:20:29.023Z,74.77
2022-11-01T08:22:55.811Z,73.90
2022-11-01T08:25:22.809Z,74.85
2022-11-01T08:27:49.608Z,72.62
2022-11-01T08:30:17.904Z,72.44
2022-11-01T08:32:45.231Z,72.96
2022-11-01T08:35:12.343Z,72.98
2022-11-01T08:37:51.751Z,73.33
2022-11-01T08:40:19.129Z,72.42
2022-11-01T08:42:45.878Z,73.36
2022-11-01T08:45:13.373Z,72.30
2022-11-01T08:47:40.899Z,72.47
2022-11-01T08:50:11.301Z,72.85
2022-11-01T08:52:38.589Z,72.83
2022-11-01T08:55:05.473Z,72.52
2022-11-01T08:57:32.143Z,72.68
2022-11-01T08:59:58.710Z,73.10
2022-11-01T09:02:25.575Z,73.39
2022-11-01T09:04:52.748Z,72.72
2022-11-01T09:07:19.270Z,72.91
2022-11-01T09:09:46.519Z,72.29
2022-11-01T09:12:14.709Z,73.55
2022-11-01T09:14:41.677Z,73.42
2022-11-01T09:17:08.649Z,73.95
2022-11-01T09:19:35.221Z,72.80
2022-11-01T09:22:01.739Z,73.11
2022-11-01T09:24:28.263Z,72.84
2022-11-01T09:26:54.814Z,72.95
2022-11-01T09:29:21.725Z,73.53
2022-11-01T09:31:52.878Z,73.45
2022-11-01T09:34:20.585Z,72.82
2022-11-01T09:36:47.699Z,72.59
2022-11-01T09:39:16.456Z,72.21
2022-11-01T09:41:47.661Z,71.49
2022-11-01T09:44:29.956Z,71.20
2022-11-01T09:47:08.216Z,71.77
2022-11-01T09:49:41.008Z,70.34
2022-11-01T09:52:14.678Z,70.34
2022-11-01T09:54:41.258Z,69.12
2022-11-01T09:57:07.739Z,68.98
2022-11-01T09:59:46.131Z,68.54
2022-11-01T10:02:36.879Z,69.63
2022-11-01T10:05:42.068Z,69.41
2022-11-01T10:08:14.677Z,69.06
2022-11-01T10:11:12.531Z,69.86
2022-11-01T10:14:10.615Z,68.90
2022-11-01T10:16:49.306Z,68.79
2022-11-01T10:19:19.182Z,69.69
2022-11-01T10:21:51.905Z,68.74
2022-11-01T10:24:23.844Z,68.10
2022-11-01T10:26:56.553Z,67.72
2022-11-01T10:29:37.389Z,67.36
2022-11-01T10:32:09.345Z,68.56
2022-11-01T10:34:39.785Z,65.84
2022-11-01T10:37:34.928Z,66.71
2022-11-01T10:40:10.030Z,67.96
2022-11-01T10:42:37.051Z,67.73
2022-11-01T10:45:08.767Z,68.68
2022-11-01T10:47:35.586Z,68.74
2022-11-01T10:50:10.388Z,69.11
2022-11-01T10:52:52.026Z,69.08
2022-11-01T10:55:29.226Z,70.04
2022-11-01T10:58:03.171Z,69.46
2022-11-01T11:00:32.638Z,70.08
2022-11-01T11:03:02.951Z,69.84
2022-11-01T11:05:31.300Z,69.17
2022-11-01T11:07:57.996Z,69.79
2022-11-01T11:10:28.345Z,69.88
2022-11-01T11:13:05.272Z,69.36
2022-11-01T11:15:47.001Z,70.25
2022-11-01T11:18:24.731Z,70.33
2022-11-01T11:20:57.429Z,71.21
2022-11-01T11:23:27.353Z,70.31
2022-11-01T11:26:01.330Z,69.92
2022-11-01T11:28:32.309Z,70.40
2022-11-01T11:31:15.809Z,70.01
2022-11-01T11:33:53.383Z,70.34
2022-11-01T11:36:38.336Z,70.66
2022-11-01T11:39:05.682Z,70.95
2022-11-01T11:41:36.281Z,70.25
2022-11-01T11:44:03.710Z,70.10
2022-11-01T11:46:30.309Z,70.44
2022-11-01T11:49:01.508Z,70.81
2022-11-01T11:51:30.582Z,71.13
2022-11-01T11:54:21.384Z,70.07
2022-11-01T11:56:52.994Z,70.34
2022-11-01T11:59:29.234Z,70.79
2022-11-01T12:02:02.530Z,70.17
2022-11-01T12:04:41.731Z,70.33
2022-11-01T12:07:30.609Z,70.59
2022-11-01T12:10:02.291Z,70.84
2022-11-01T12:12:30.878Z,70.33
2022-11-01T12:14:58.222Z,70.90
2022-11-01T12:17:36.591Z,70.85
2022-11-01T12:20:18.497Z,71.15
2022-11-01T12:23:02.275Z,71.10
2022-11-01T12:25:29.557Z,70.65
2022-11-01T12:28:00.400Z,70.64
2022-11-01T12:30:30.812Z,70.67
2022-11-01T12:33:01.097Z,70.17
2022-11-01T12:35:48.052Z,70.23
2022-11-01T12:38:29.854Z,70.01
2022-11-01T12:41:01.573Z,69.33
2022-11-01T12:43:43.647Z,68.33
2022-11-01T12:46:22.734Z,67.79
2022-11-01T12:48:59.798Z,68.95
2022-11-01T12:51:31.762Z,68.40
2022-11-01T12:54:13.951Z,68.22
2022-11-01T12:56:40.561Z,68.00
2022-11-01T12:59:12.264Z,68.04
2022-11-01T13:02:12.049Z,67.39
2022-11-01T13:04:52.762Z,67.89
2022-11-01T13:07:52.091Z,66.89
2022-11-01T13:10:33.445Z,66.30
2022-11-01T13:13:18.761Z,67.47
2022-11-01T13:16:02.062Z,65.08
2022-11-01T13:18:51.804Z,65.19
2022-11-01T13:21:27.899Z,66.16
2022-11-01T13:24:05.436Z,66.82
2022-11-01T13:26:37.033Z,67.54
2022-11-01T13:29:22.134Z,68.94
2022-11-01T13:32:04.196Z,69.49
2022-11-01T13:34:49.821Z,69.86
2022-11-01T13:37:23.330Z,70.38
2022-11-01T13:40:07.901Z,70.46
2022-11-01T13:42:40.084Z,69.79
2022-11-01T13:45:12.786Z,70.92
2022-11-01T13:48:20.394Z,70.58
2022-11-01T13:51:14.329Z,70.98
2022-11-01T13:54:02.382Z,71.18
2022-11-01T13:56:31.774Z,70.60
2022-11-01T13:58:58.867Z,70.71
2022-11-01T14:01:32.645Z,70.83
2022-11-01T14:04:12.171Z,71.06
2022-11-01T14:06:41.823Z,71.15
2022-11-01T14:09:23.351Z,71.11
2022-11-01T14:11:54.185Z,71.21
2022-11-01T14:14:29.846Z,71.13
2022-11-01T14:17:20.794Z,71.74
2022-11-01T14:20:10.702Z,71.66
2022-11-01T14:22:38.676Z,71.67
2022-11-01T14:25:11.926Z,71.67
2022-11-01T14:27:48.879Z,71.92
2022-11-01T14:30:24.452Z,71.52
2022-11-01T14:33:03.147Z,72.28
2022-11-01T14:35:29.773Z,72.27
2022-11-01T14:38:00.571Z,72.95
2022-11-01T14:40:41.531Z,73.67
2022-11-01T14:43:30.989Z,72.74
2022-11-01T14:46:17.744Z,74.23
2022-11-01T14:48:59.306Z,73.99
2022-11-01T14:51:46.290Z,73.98
2022-11-01T14:54:17.153Z,74.84
2022-11-01T14:56:50.051Z,75.50
2022-11-01T14:59:21.075Z,75.47
2022-11-01T15:01:51.298Z,74.43
2022-11-01T15:04:24.103Z,75.09
2022-11-01T15:06:51.430Z,75.37
2022-11-01T15:09:23.462Z,76.57
2022-11-01T15:11:52.307Z,77.08
2022-11-01T15:14:37.683Z,76.06
2022-11-01T15:17:07.053Z,75.85
2022-11-01T15:19:38.037Z,75.95
2022-11-01T15:22:06.415Z,75.31
2022-11-01T15:24:34.828Z,75.10
2022-11-01T15:27:15.309Z,75.47
2022-11-01T15:29:45.204Z,74.89
2022-11-01T15:32:29.668Z,74.62
2022-11-01T15:34:59.278Z,76.37
2022-11-01T15:37:32.578Z,77.96
2022-11-01T15:40:27.922Z,79.17
2022-11-01T15:43:02.039Z,80.47
2022-11-01T15:45:37.205Z,80.16
2022-11-01T15:48:09.598Z,78.85
2022-11-01T15:50:39.965Z,80.14
2022-11-01T15:53:14.616Z,80.06
2022-11-01T15:55:45.467Z,78.62
2022-11-01T15:58:24.157Z,79.53
2022-11-01T16:00:53.899Z,80.39
2022-11-01T16:03:27.735Z,81.11
2022-11-01T16:05:59.711Z,81.61
2022-11-01T16:08:52.471Z,82.95
2022-11-01T16:11:22.691Z,81.69
2022-11-01T16:14:03.863Z,81.78
2022-11-01T16:17:04.157Z,82.87
2022-11-01T16:19:45.309Z,83.03
2022-11-01T16:22:41.260Z,85.03
2022-11-01T16:25:08.666Z,86.41
2022-11-01T16:27:38.570Z,86.02
2022-11-01T16:30:10.515Z,86.77
2022-11-01T16:32:37.490Z,86.39
2022-11-01T16:35:33.723Z,86.51
2022-11-01T16:38:00.660Z,88.48
2022-11-01T16:40:30.881Z,89.10
2022-11-01T16:42:59.397Z,88.05
2022-11-01T16:45:26.022Z,88.01
2022-11-01T16:47:58.010Z,88.45
2022-11-01T16:50:24.951Z,88.48
2022-11-01T16:52:51.459Z,89.20
2022-11-01T16:55:18.391Z,88.50
2022-11-01T16:57:47.237Z,89.01
2022-11-01T17:00:15.197Z,89.96
2022-11-01T17:02:42.262Z,87.18
2022-11-01T17:05:19.142Z,85.30
2022-11-01T17:07:45.902Z,83.61
2022-11-01T17:10:15.494Z,84.48
2022-11-01T17:12:42.098Z,83.83
2022-11-01T17:15:11.816Z,85.17
2022-11-01T17:17:39.549Z,85.06
2022-11-01T17:20:06.407Z,86.55
2022-11-01T17:22:36.733Z,87.07
2022-11-01T17:25:04.868Z,85.95
2022-11-01T17:27:31.542Z,86.29
2022-11-01T17:29:58.045Z,86.26
2022-11-01T17:32:24.620Z,86.80
2022-11-01T17:34:51.354Z,85.92
2022-11-01T17:37:17.947Z,89.25
2022-11-01T17:39:44.555Z,87.48
2022-11-01T17:42:11.509Z,88.25
2022-11-01T17:44:38.062Z,87.74
2022-11-01T17:47:04.610Z,87.25
2022-11-01T17:49:31.096Z,88.16
2022-11-01T17:51:57.694Z,86.13
2022-11-01T17:56:52.880Z,85.66
2022-11-01T17:59:19.619Z,84.75
2022-11-01T18:01:46.317Z,84.69
2022-11-01T18:04:13.132Z,84.55
2022-11-01T18:06:43.738Z,86.10
2022-11-01T18:09:19.634Z,88.12
2022-11-01T18:11:53.721Z,90.07
2022-11-01T18:14:34.122Z,88.80
2022-11-01T18:17:07.833Z,89.63
2022-11-01T18:19:57.736Z,92.13
2022-11-01T18:22:57.525Z,93.09
2022-11-01T18:25:47.291Z,92.79
2022-11-01T18:28:17.286Z,93.74
2022-11-01T18:30:47.497Z,94.40
2022-11-01T18:33:27.809Z,93.79
2022-11-01T18:36:01.468Z,95.54
2022-11-01T18:38:30.891Z,96.72
2022-11-01T18:41:00.575Z,98.09
2022-11-01T18:43:31.535Z,99.14
2022-11-01T18:48:46.098Z,97.95
2022-11-01T18:51:18.359Z,100.00
2022-11-01T18:53:45.990Z,100.00
2022-11-01T18:56:25.665Z,99.27
2022-11-01T18:58:53.946Z,100.00
2022-11-01T19:01:33.396Z,100.00
2022-11-01T19:04:29.891Z,99.51
2022-11-01T19:07:04.843Z,100.00
2022-11-01T19:09:38.143Z,100.00
2022-11-01T19:12:17.526Z,100.00
2022-11-01T19:14:48.646Z,98.46
2022-11-01T19:17:19.806Z,99.05
2022-11-01T19:19:47.167Z,98.24
2022-11-01T19:22:31.402Z,97.89
2022-11-01T19:24:59.464Z,97.41
2022-11-01T19:27:26.580Z,97.75
2022-11-01T19:29:58.131Z,97.41
2022-11-01T19:32:25.238Z,97.89
2022-11-01T19:34:53.530Z,99.48
2022-11-01T19:37:33.049Z,99.90
2022-11-01T19:40:06.875Z,100.00
2022-11-01T19:42:35.108Z,100.00
2022-11-01T19:45:28.867Z,100.00
2022-11-01T19:47:55.625Z,100.00
2022-11-01T19:50:31.452Z,100.00
2022-11-01T19:52:59.122Z,100.00
2022-11-01T19:55:25.661Z,100.00
2022-11-01T19:57:52.660Z,100.00
2022-11-01T20:00:21.492Z,100.00
2022-11-01T20:02:49.002Z,100.00
2022-11-01T20:05:30.017Z,100.00
2022-11-01T20:08:18.771Z,100.00
2022-11-01T20:10:45.293Z,100.00
2022-11-01T20:13:11.811Z,100.00
2022-11-01T20:15:38.383Z,100.00
2022-11-01T20:18:05.991Z,100.00
2022-11-01T20:20:32.868Z,100.00
2022-11-01T20:23:20.192Z,100.00
2022-11-01T20:25:45.971Z,100.00
2022-11-01T20:28:12.710Z,100.00
2022-11-01T20:30:39.321Z,100.00
2022-11-01T20:33:06.291Z,100.00
2022-11-01T20:35:33.093Z,100.00
2022-11-01T20:37:59.706Z,100.00
2022-11-01T20:40:26.712Z,100.00
2022-11-01T20:42:54.374Z,100.00
2022-11-01T20:45:20.924Z,100.00
2022-11-01T20:47:47.523Z,100.00
2022-11-01T20:50:16.282Z,100.00
2022-11-01T20:52:42.907Z,100.00
2022-11-01T20:55:11.878Z,100.00
2022-11-01T20:57:38.938Z,100.00
2022-11-01T21:00:11.738Z,100.00
2022-11-01T21:02:38.394Z,100.00
2022-11-01T21:05:28.804Z,100.00
2022-11-01T21:08:11.592Z,100.00
2022-11-01T21:10:40.228Z,100.00
2022-11-01T21:13:27.677Z,100.00
2022-11-01T21:15:57.292Z,100.00
2022-11-01T21:18:34.497Z,100.00
2022-11-01T21:21:25.293Z,100.00
2022-11-01T21:23:51.894Z,100.00
2022-11-01T21:26:25.491Z,100.00
2022-11-01T21:28:54.481Z,100.00
2022-11-01T21:31:27.136Z,100.00
2022-11-01T21:34:21.663Z,100.00
2022-11-01T21:36:49.170Z,100.00
2022-11-01T21:39:33.107Z,100.00
2022-11-01T21:42:30.782Z,100.00
2022-11-01T21:44:57.980Z,100.00
2022-11-01T21:47:29.573Z,100.00
2022-11-01T21:49:56.892Z,100.00
2022-11-01T21:52:23.701Z,100.00
2022-11-01T21:54:50.977Z,100.00
2022-11-01T21:57:17.828Z,100.00
2022-11-01T21:59:44.693Z,100.00
2022-11-01T22:02:13.687Z,100.00
2022-11-01T22:04:40.684Z,100.00
2022-11-01T22:07:09.735Z,100.00
2022-11-01T22:09:37.126Z,100.00
2022-11-01T22:12:04.259Z,100.00
2022-11-01T22:14:31.669Z,100.00
2022-11-01T22:16:59.038Z,100.00
2022-11-01T22:19:26.676Z,100.00
2022-11-01T22:21:53.652Z,100.00
2022-11-01T22:24:20.295Z,100.00
2022-11-01T22:26:46.874Z,100.00
2022-11-01T22:29:13.656Z,100.00
2022-11-01T22:31:40.418Z,100.00
2022-11-01T22:34:07.078Z,100.00
2022-11-01T22:36:36.210Z,100.00
2022-11-01T22:39:25.172Z,100.00
2022-11-01T22:41:52.207Z,100.00
2022-11-01T22:44:31.281Z,100.00
2022-11-01T22:47:02.368Z,100.00
2022-11-01T22:49:34.989Z,100.00
2022-11-01T22:52:19.748Z,100.00
2022-11-01T22:55:00.246Z,100.00
2022-11-01T22:57:32.658Z,100.00
2022-11-01T23:00:02.102Z,100.00
2022-11-01T23:02:33.656Z,100.00
2022-11-01T23:05:22.134Z,100.00
2022-11-01T23:07:51.200Z,100.00
2022-11-01T23:10:30.863Z,100.00
2022-11-01T23:13:21.988Z,100.00
2022-11-01T23:15:51.137Z,100.00
2022-11-01T23:18:27.769Z,100.00
2022-11-01T23:20:59.606Z,100.00
2022-11-01T23:23:26.998Z,100.00
2022-11-01T23:25:55.455Z,100.00
2022-11-01T23:28:24.133Z,100.00
2022-11-01T23:30:51.748Z,100.00
2022-11-01T23:33:20.645Z,100.00
2022-11-01T23:35:52.159Z,100.00
2022-11-01T23:38:23.196Z,100.00
2022-11-01T23:40:52.579Z,100.00
2022-11-01T23:43:33.884Z,100.00
2022-11-01T23:46:01.878Z,100.00
2022-11-01T23:48:28.760Z,100.00
2022-11-01T23:50:56.635Z,100.00
2022-11-01T23:53:32.147Z,100.00
2022-11-01T23:56:00.114Z,100.00
2022-11-01T23:58:31.018Z,100.00
